Time;durP1;ratioP1;P1;durP2;ratioP2;P2;SDS_P1;SDS_P2;PMS_P1;PMS_P2;Temp;Humidity;BMP_temperature;BMP_pressure;BME280_temperature;BME280_humidity;BME280_pressure;Samples;Min_cycle;Max_cycle;Signal;HPM_P1;HPM_P2
2024/02/17 00:02:05;;;;;;;1.83;1.10;;;10.50;99.90;;;;;;5106311;28;20083;-47
2024/02/17 00:04:30;;;;;;;7.45;3.50;;;10.50;99.90;;;;;;5106539;28;20173;-49
2024/02/17 00:06:56;;;;;;;3.20;1.50;;;10.50;99.90;;;;;;5106309;28;20032;-45
2024/02/17 00:09:22;;;;;;;3.65;1.58;;;10.60;99.90;;;;;;5106366;28;20046;-48
2024/02/17 00:11:48;;;;;;;4.70;2.00;;;10.60;99.90;;;;;;5106310;28;20038;-45
2024/02/17 00:14:14;;;;;;;2.22;0.80;;;10.60;99.90;;;;;;5106356;28;20181;-49
2024/02/17 00:16:40;;;;;;;9.00;3.75;;;10.60;99.90;;;;;;5106432;28;20047;-46
2024/02/17 00:19:06;;;;;;;8.75;3.03;;;10.60;99.90;;;;;;5105167;28;20028;-47
2024/02/17 00:21:32;;;;;;;1.63;1.00;;;10.60;99.90;;;;;;5105947;28;20062;-46
2024/02/17 00:23:57;;;;;;;3.35;1.55;;;10.60;99.90;;;;;;5106324;28;20099;-48
2024/02/17 00:26:23;;;;;;;2.13;1.50;;;10.60;99.90;;;;;;5106195;28;20036;-47
2024/02/17 00:28:51;;;;;;;0.82;0.70;;;10.60;99.90;;;;;;5106177;28;20028;-45
2024/02/17 00:31:18;;;;;;;13.43;5.28;;;10.60;99.90;;;;;;5087660;28;20150;-45
2024/02/17 00:33:44;;;;;;;1.90;1.23;;;10.60;99.90;;;;;;5105915;28;20094;-45
2024/02/17 00:36:09;;;;;;;3.45;1.70;;;10.60;99.90;;;;;;5106017;28;20039;-46
2024/02/17 00:38:35;;;;;;;3.65;1.45;;;10.60;99.90;;;;;;5106230;28;20058;-45
2024/02/17 00:41:06;;;;;;;3.53;1.38;;;10.60;99.90;;;;;;5105809;28;20032;-44
2024/02/17 00:43:32;;;;;;;2.72;1.70;;;10.60;99.90;;;;;;5105735;28;20043;-47
2024/02/17 00:45:57;;;;;;;3.78;1.60;;;10.60;99.90;;;;;;5087962;28;20062;-46
2024/02/17 00:48:25;;;;;;;1.63;0.80;;;10.60;99.90;;;;;;5105968;28;20080;-45
2024/02/17 00:50:50;;;;;;;4.13;1.83;;;10.70;99.90;;;;;;5105632;28;20067;-44
2024/02/17 00:53:16;;;;;;;4.50;1.90;;;10.70;99.90;;;;;;5105811;28;20024;-45
2024/02/17 00:55:42;;;;;;;1.70;0.88;;;10.70;99.90;;;;;;5105779;28;20032;-46
2024/02/17 00:58:07;;;;;;;1.13;0.80;;;10.70;99.90;;;;;;5105797;28;20081;-45
2024/02/17 01:00:33;;;;;;;0.60;0.60;;;10.70;99.90;;;;;;5087820;28;20035;-49
2024/02/17 01:02:59;;;;;;;1.00;0.70;;;10.70;99.90;;;;;;5105862;28;20085;-47
2024/02/17 01:05:24;;;;;;;2.72;1.10;;;10.70;99.90;;;;;;5105695;28;20051;-45
2024/02/17 01:07:50;;;;;;;0.90;0.70;;;10.80;99.90;;;;;;5105920;28;20023;-47
2024/02/17 01:10:17;;;;;;;3.25;1.20;;;10.80;99.90;;;;;;5105814;28;20040;-45
2024/02/17 01:12:43;;;;;;;3.85;1.73;;;10.70;99.90;;;;;;5109932;28;20054;-45
2024/02/17 01:15:09;;;;;;;4.32;2.17;;;10.80;99.90;;;;;;5109789;28;20337;-46
2024/02/17 01:17:35;;;;;;;2.97;1.60;;;10.70;99.90;;;;;;5109700;28;20265;-45
2024/02/17 01:20:01;;;;;;;2.30;1.00;;;10.70;99.90;;;;;;5109706;28;20081;-48
2024/02/17 01:22:26;;;;;;;1.13;0.82;;;10.70;99.90;;;;;;5109361;28;20099;-47
2024/02/17 01:24:52;;;;;;;1.48;0.98;;;10.70;99.90;;;;;;5109411;28;20030;-46
2024/02/17 01:27:18;;;;;;;1.88;0.90;;;10.70;99.90;;;;;;5109745;28;20059;-47
2024/02/17 01:29:43;;;;;;;2.30;1.10;;;10.70;99.90;;;;;;5109615;28;20201;-45
2024/02/17 01:32:09;;;;;;;0.93;0.70;;;10.80;99.90;;;;;;5109633;28;20039;-47
2024/02/17 01:34:35;;;;;;;0.85;0.60;;;10.70;99.90;;;;;;5109282;28;20063;-46
2024/02/17 01:37:01;;;;;;;1.25;0.50;;;10.80;99.90;;;;;;5109390;28;20024;-46
2024/02/17 01:39:28;;;;;;;1.30;0.70;;;10.70;99.90;;;;;;5109739;28;20253;-47
2024/02/17 01:41:56;;;;;;;2.38;0.82;;;10.80;99.90;;;;;;5109502;28;20060;-45
2024/02/17 01:44:22;;;;;;;1.70;0.77;;;10.70;99.90;;;;;;5109305;28;20032;-45
2024/02/17 01:46:50;;;;;;;1.65;0.80;;;10.70;99.90;;;;;;5108975;28;20070;-46
2024/02/17 01:49:15;;;;;;;1.70;0.70;;;10.80;99.90;;;;;;5108306;28;20201;-46
2024/02/17 01:51:41;;;;;;;1.42;0.80;;;10.70;99.90;;;;;;5108249;28;20040;-45
2024/02/17 01:54:08;;;;;;;1.77;0.75;;;10.70;99.90;;;;;;5109212;28;20211;-45
2024/02/17 01:56:33;;;;;;;1.42;1.02;;;10.70;99.90;;;;;;5108455;28;20078;-45
2024/02/17 01:58:59;;;;;;;1.25;0.75;;;10.70;99.90;;;;;;5090985;28;20059;-46
2024/02/17 02:01:24;;;;;;;1.60;0.80;;;10.80;99.90;;;;;;5109147;28;20280;-47
2024/02/17 02:03:50;;;;;;;1.92;1.15;;;10.80;99.90;;;;;;5108892;28;20070;-46
2024/02/17 02:06:20;;;;;;;1.23;0.80;;;10.80;99.90;;;;;;5108946;28;20288;-46
2024/02/17 02:08:48;;;;;;;1.35;0.85;;;10.80;99.90;;;;;;5108541;28;20038;-46
2024/02/17 02:11:14;;;;;;;1.13;0.77;;;10.70;99.90;;;;;;5107744;28;20154;-45
2024/02/17 02:13:39;;;;;;;1.75;0.82;;;10.80;99.90;;;;;;5108586;28;20035;-46
2024/02/17 02:16:05;;;;;;;1.27;0.90;;;10.80;99.90;;;;;;5108770;28;20260;-46
2024/02/17 02:18:31;;;;;;;1.80;1.10;;;10.80;99.90;;;;;;5108700;28;20035;-45
2024/02/17 02:20:57;;;;;;;2.42;0.98;;;10.80;99.90;;;;;;5108520;28;20028;-45
2024/02/17 02:23:23;;;;;;;2.45;1.10;;;10.70;99.90;;;;;;5108243;28;20100;-46
2024/02/17 02:25:52;;;;;;;2.80;1.17;;;10.80;99.90;;;;;;5108419;28;20237;-45
2024/02/17 02:28:17;;;;;;;1.83;1.10;;;10.80;99.90;;;;;;5108598;28;20027;-48
2024/02/17 02:30:43;;;;;;;1.88;1.13;;;10.80;99.90;;;;;;5108567;28;20081;-45
2024/02/17 02:33:08;;;;;;;4.65;1.48;;;10.80;99.90;;;;;;5108300;28;20043;-46
2024/02/17 02:35:34;;;;;;;3.08;1.42;;;10.80;99.90;;;;;;5108149;28;20285;-46
2024/02/17 02:38:02;;;;;;;2.50;1.30;;;10.80;99.90;;;;;;5108425;28;20024;-46
2024/02/17 02:40:28;;;;;;;3.47;1.50;;;10.80;99.90;;;;;;5107696;28;20297;-45
2024/02/17 02:42:54;;;;;;;2.58;1.60;;;10.80;99.90;;;;;;5108053;28;20038;-45
2024/02/17 02:45:19;;;;;;;3.95;1.60;;;10.90;99.90;;;;;;5108339;28;20031;-46
2024/02/17 02:47:46;;;;;;;5.00;1.90;;;10.90;99.90;;;;;;5107988;28;20091;-46
2024/02/17 02:50:12;;;;;;;3.67;1.67;;;10.90;99.90;;;;;;5108066;28;20173;-45
2024/02/17 02:52:38;;;;;;;2.28;1.50;;;10.90;99.90;;;;;;5108096;28;20028;-45
2024/02/17 02:55:04;;;;;;;4.97;1.65;;;10.90;99.90;;;;;;5107915;28;20036;-44
2024/02/17 02:57:30;;;;;;;3.05;1.27;;;10.90;99.90;;;;;;5107573;28;20216;-45
2024/02/17 02:59:55;;;;;;;4.97;1.50;;;10.90;99.90;;;;;;5107890;28;20028;-45
2024/02/17 03:02:21;;;;;;;4.13;1.10;;;10.90;99.90;;;;;;5107780;28;20032;-47
2024/02/17 03:04:47;;;;;;;4.07;1.50;;;10.90;99.90;;;;;;5107672;28;20024;-45
2024/02/17 03:07:12;;;;;;;3.28;1.00;;;10.90;99.90;;;;;;5107730;28;20204;-46
2024/02/17 03:09:38;;;;;;;1.95;0.95;;;10.90;99.90;;;;;;5107671;28;20046;-45
2024/02/17 03:12:04;;;;;;;1.52;0.93;;;10.90;99.90;;;;;;5107195;28;20024;-48
2024/02/17 03:14:30;;;;;;;4.47;1.13;;;10.90;99.90;;;;;;5107644;28;20092;-45
2024/02/17 03:16:56;;;;;;;3.15;0.90;;;10.90;99.90;;;;;;5107649;28;20031;-48
2024/02/17 03:19:22;;;;;;;1.83;0.90;;;10.90;99.90;;;;;;5107619;28;20077;-45
2024/02/17 03:21:47;;;;;;;1.67;0.93;;;10.90;99.90;;;;;;5107232;28;20023;-47
2024/02/17 03:24:13;;;;;;;2.67;0.90;;;10.90;99.90;;;;;;5107461;28;20036;-45
2024/02/17 03:26:38;;;;;;;4.40;0.90;;;10.90;99.90;;;;;;5107404;28;20036;-46
2024/02/17 03:29:05;;;;;;;2.38;1.08;;;10.90;99.90;;;;;;5107131;28;20099;-45
2024/02/17 03:31:31;;;;;;;2.47;0.73;;;10.90;99.90;;;;;;5107236;28;20028;-46
2024/02/17 03:33:58;;;;;;;1.67;0.82;;;10.90;99.90;;;;;;5106715;28;20065;-45
2024/02/17 03:36:24;;;;;;;0.98;0.80;;;10.90;99.90;;;;;;5107238;28;20023;-45
2024/02/17 03:38:50;;;;;;;1.67;0.80;;;10.90;99.90;;;;;;5106965;28;20073;-45
2024/02/17 03:41:15;;;;;;;2.08;0.90;;;10.90;99.90;;;;;;5106869;28;20293;-46
2024/02/17 03:43:41;;;;;;;2.28;0.80;;;10.90;99.90;;;;;;5105900;28;20166;-46
2024/02/17 03:46:07;;;;;;;1.48;0.80;;;10.90;99.90;;;;;;5107744;28;20285;-47
2024/02/17 03:48:33;;;;;;;1.75;0.93;;;10.90;99.90;;;;;;5107030;28;20039;-45
2024/02/17 03:51:00;;;;;;;2.53;1.08;;;10.90;99.90;;;;;;5106600;28;20073;-46
2024/02/17 03:53:26;;;;;;;2.67;1.00;;;10.90;99.90;;;;;;5107085;28;20207;-45
2024/02/17 03:55:51;;;;;;;1.52;0.80;;;10.90;99.90;;;;;;5106758;28;20048;-45
2024/02/17 03:58:17;;;;;;;2.50;1.10;;;10.90;99.90;;;;;;5106877;28;20035;-46
2024/02/17 04:00:43;;;;;;;3.30;1.10;;;10.90;99.90;;;;;;5106788;28;20028;-45
2024/02/17 04:03:08;;;;;;;11.10;1.35;;;10.90;99.90;;;;;;5106348;28;20083;-45
2024/02/17 04:05:36;;;;;;;3.17;0.93;;;10.90;99.90;;;;;;5106534;28;20024;-46
2024/02/17 04:08:02;;;;;;;1.85;1.02;;;10.80;99.90;;;;;;5106705;28;20246;-45
2024/02/17 04:10:28;;;;;;;2.85;0.98;;;10.80;99.90;;;;;;5106556;28;20024;-45
2024/02/17 04:12:54;;;;;;;3.80;1.15;;;10.80;99.90;;;;;;5106483;28;20038;-46
2024/02/17 04:15:21;;;;;;;2.03;1.10;;;10.80;99.90;;;;;;5106364;28;20036;-47
2024/02/17 04:17:47;;;;;;;4.60;1.48;;;10.80;99.90;;;;;;5106439;28;20024;-46
2024/02/17 04:20:13;;;;;;;3.97;1.50;;;10.80;99.90;;;;;;5105998;28;20142;-45
2024/02/17 04:22:39;;;;;;;5.75;1.40;;;10.70;99.90;;;;;;5106043;28;20205;-47
2024/02/17 04:25:05;;;;;;;5.60;1.52;;;10.70;99.90;;;;;;5105165;28;20347;-45
2024/02/17 04:27:31;;;;;;;4.85;1.10;;;10.70;99.90;;;;;;5106096;28;20080;-45
2024/02/17 04:29:58;;;;;;;2.88;1.02;;;10.80;99.90;;;;;;5106149;28;20051;-46
2024/02/17 04:32:24;;;;;;;2.20;1.17;;;10.70;99.90;;;;;;5106270;28;20059;-45
2024/02/17 04:34:49;;;;;;;3.03;1.27;;;10.80;99.90;;;;;;5106132;28;20035;-45
2024/02/17 04:37:15;;;;;;;3.97;1.60;;;10.70;99.90;;;;;;5106095;28;20043;-45
2024/02/17 04:39:41;;;;;;;3.75;1.20;;;10.80;99.90;;;;;;5105919;28;20028;-45
2024/02/17 04:42:07;;;;;;;3.15;1.30;;;10.70;99.90;;;;;;5106016;28;20077;-45
2024/02/17 04:44:33;;;;;;;1.88;1.23;;;10.70;99.90;;;;;;5105939;28;20028;-45
2024/02/17 04:46:58;;;;;;;2.92;1.25;;;10.70;99.90;;;;;;5105047;28;20020;-45
2024/02/17 04:49:24;;;;;;;3.85;1.42;;;10.70;99.90;;;;;;5105999;28;20028;-47
2024/02/17 04:51:49;;;;;;;3.90;1.38;;;10.70;99.90;;;;;;5105885;28;20035;-46
2024/02/17 04:54:15;;;;;;;4.82;1.40;;;10.70;99.90;;;;;;5105940;28;20028;-45
2024/02/17 04:56:41;;;;;;;2.28;1.13;;;10.70;99.90;;;;;;5106018;28;20169;-45
2024/02/17 04:59:06;;;;;;;2.10;1.17;;;10.70;99.90;;;;;;5105790;28;20040;-47
2024/02/17 05:01:32;;;;;;;2.55;1.20;;;10.60;99.90;;;;;;5105722;28;20026;-46
2024/02/17 05:03:58;;;;;;;2.47;1.00;;;10.60;99.90;;;;;;5105795;28;20039;-45
2024/02/17 05:06:24;;;;;;;2.42;1.17;;;10.60;99.90;;;;;;5105897;28;20281;-47
2024/02/17 05:08:49;;;;;;;2.92;1.33;;;10.60;99.90;;;;;;5105981;28;20069;-45
2024/02/17 05:11:18;;;;;;;1.75;1.10;;;10.60;99.90;;;;;;5105835;28;20032;-44
2024/02/17 05:13:44;;;;;;;2.45;1.10;;;10.60;99.90;;;;;;5105725;28;20046;-46
2024/02/17 05:16:09;;;;;;;2.58;1.17;;;10.60;99.90;;;;;;5105819;28;20260;-48
2024/02/17 05:18:35;;;;;;;3.35;1.40;;;10.50;99.90;;;;;;5105739;28;20110;-46
2024/02/17 05:21:01;;;;;;;3.40;1.17;;;10.50;99.90;;;;;;5105645;28;20036;-45
2024/02/17 05:23:26;;;;;;;3.63;1.42;;;10.50;99.90;;;;;;5105221;28;20044;-45
2024/02/17 05:25:54;;;;;;;4.45;1.45;;;10.50;99.90;;;;;;5106117;28;20024;-46
2024/02/17 05:28:21;;;;;;;3.83;1.60;;;10.50;99.90;;;;;;5105618;28;20193;-46
2024/02/17 05:30:48;;;;;;;4.03;1.75;;;10.60;99.90;;;;;;5105438;28;20309;-47
2024/02/17 05:33:13;;;;;;;4.70;2.00;;;10.50;99.90;;;;;;5105381;28;20051;-45
2024/02/17 05:35:39;;;;;;;6.50;1.73;;;10.50;99.90;;;;;;5105389;28;20327;-49
2024/02/17 05:38:04;;;;;;;6.40;1.90;;;10.50;99.90;;;;;;5105516;28;20032;-44
2024/02/17 05:40:30;;;;;;;3.33;1.70;;;10.50;99.90;;;;;;5105579;28;20032;-46
2024/02/17 05:42:56;;;;;;;3.85;1.95;;;10.60;99.90;;;;;;5105542;28;20040;-47
2024/02/17 05:45:21;;;;;;;5.78;1.98;;;10.60;99.90;;;;;;5105241;28;20032;-45
2024/02/17 05:47:48;;;;;;;3.35;1.70;;;10.50;99.90;;;;;;5105261;28;20213;-46
2024/02/17 05:50:14;;;;;;;6.60;1.75;;;10.60;99.90;;;;;;5105401;28;20170;-47
2024/02/17 05:52:41;;;;;;;3.50;1.40;;;10.60;99.90;;;;;;5105346;28;20096;-45
2024/02/17 05:55:07;;;;;;;3.50;1.38;;;10.60;99.90;;;;;;5105245;28;20049;-45
2024/02/17 05:57:33;;;;;;;2.90;1.33;;;10.60;99.90;;;;;;5107201;28;20380;-45
2024/02/17 05:59:58;;;;;;;2.50;0.95;;;10.60;99.90;;;;;;5108945;28;20281;-45
2024/02/17 06:02:24;;;;;;;4.28;1.40;;;10.60;99.90;;;;;;5107892;28;20050;-47
2024/02/17 06:04:50;;;;;;;2.30;0.75;;;10.60;99.90;;;;;;5108663;28;20024;-46
2024/02/17 06:07:16;;;;;;;1.98;0.70;;;10.70;99.90;;;;;;5108638;28;20028;-46
2024/02/17 06:09:41;;;;;;;7.10;1.75;;;10.70;99.90;;;;;;5108758;28;20028;-45
2024/02/17 06:12:07;;;;;;;3.67;1.30;;;10.70;99.90;;;;;;5108895;28;20273;-46
2024/02/17 06:14:33;;;;;;;3.38;1.20;;;10.60;99.90;;;;;;5108774;28;20024;-46
2024/02/17 06:17:04;;;;;;;3.25;1.00;;;10.70;99.90;;;;;;5108599;28;20101;-46
2024/02/17 06:22:14;;;;;;;6.30;1.58;;;10.70;99.90;;;;;;5108230;28;20075;-45
2024/02/17 06:24:40;;;;;;;4.90;1.38;;;10.70;99.90;;;;;;5108630;28;20274;-46
2024/02/17 06:27:06;;;;;;;3.72;1.42;;;10.70;99.90;;;;;;5108435;28;20047;-45
2024/02/17 06:29:31;;;;;;;2.58;1.33;;;10.70;99.90;;;;;;5108362;28;20028;-46
2024/02/17 06:31:57;;;;;;;4.03;1.52;;;10.70;99.90;;;;;;5090587;28;20032;-45
2024/02/17 06:34:22;;;;;;;2.78;1.20;;;10.70;99.90;;;;;;5108430;28;20028;-45
2024/02/17 06:36:48;;;;;;;3.28;1.60;;;10.70;99.90;;;;;;5108500;28;20047;-46
2024/02/17 06:39:14;;;;;;;4.88;2.35;;;10.60;99.90;;;;;;5108054;28;20032;-46
2024/02/17 06:41:40;;;;;;;4.72;2.17;;;10.70;99.90;;;;;;5108033;28;20034;-48
2024/02/17 06:44:05;;;;;;;5.00;1.90;;;10.70;99.90;;;;;;5108184;28;20032;-45
2024/02/17 06:46:31;;;;;;;4.68;2.22;;;10.60;99.90;;;;;;5108028;28;20095;-46
2024/02/17 06:48:56;;;;;;;2.40;1.70;;;10.60;99.90;;;;;;5108249;28;20023;-44
2024/02/17 06:51:22;;;;;;;4.68;2.83;;;10.60;99.90;;;;;;5108226;28;20134;-49
2024/02/17 06:53:48;;;;;;;2.33;1.42;;;10.60;99.90;;;;;;5107552;28;20059;-45
2024/02/17 06:56:14;;;;;;;3.20;1.10;;;10.60;99.90;;;;;;5107979;28;20043;-46
2024/02/17 06:58:41;;;;;;;3.08;0.95;;;10.60;99.90;;;;;;5108749;28;20093;-46
2024/02/17 07:01:07;;;;;;;3.72;0.82;;;10.60;99.90;;;;;;5107505;28;20455;-45
2024/02/17 07:03:32;;;;;;;0.70;0.70;;;10.60;99.90;;;;;;5107770;28;20037;-47
2024/02/17 07:05:58;;;;;;;1.60;1.00;;;10.60;99.90;;;;;;5107820;28;20028;-47
2024/02/17 07:08:24;;;;;;;3.25;1.15;;;10.60;99.90;;;;;;5106923;28;20028;-46
2024/02/17 07:10:49;;;;;;;0.75;0.75;;;10.60;99.90;;;;;;5106713;28;20020;-48
2024/02/17 07:13:15;;;;;;;1.25;0.80;;;10.60;99.90;;;;;;5107442;28;20042;-47
2024/02/17 07:15:41;;;;;;;1.15;0.73;;;10.60;99.90;;;;;;5107432;28;20043;-45
2024/02/17 07:18:06;;;;;;;0.95;0.70;;;10.60;99.90;;;;;;5107535;28;20039;-46
2024/02/17 07:20:32;;;;;;;0.60;0.60;;;10.50;99.90;;;;;;5107531;28;20024;-47
2024/02/17 07:22:58;;;;;;;0.70;0.70;;;10.50;99.90;;;;;;5106959;28;20047;-46
2024/02/17 07:25:26;;;;;;;1.67;0.80;;;10.60;99.90;;;;;;5107188;28;20091;-45
2024/02/17 07:27:52;;;;;;;0.50;0.50;;;10.50;99.90;;;;;;5107352;28;20020;-48
2024/02/17 07:30:18;;;;;;;0.50;0.50;;;10.60;99.90;;;;;;5107394;28;20218;-45
2024/02/17 07:32:43;;;;;;;1.45;0.60;;;10.50;99.90;;;;;;5107298;28;20035;-45
2024/02/17 07:35:09;;;;;;;0.40;0.40;;;10.60;99.90;;;;;;5089120;28;20058;-46
2024/02/17 07:37:35;;;;;;;0.50;0.50;;;10.60;99.90;;;;;;5107066;28;20092;-45
2024/02/17 07:40:01;;;;;;;0.50;0.50;;;10.60;99.90;;;;;;5107001;28;20051;-49
2024/02/17 07:42:28;;;;;;;0.68;0.60;;;10.70;99.90;;;;;;5106838;28;20134;-46
2024/02/17 07:44:54;;;;;;;0.60;0.60;;;10.70;99.90;;;;;;5106948;28;20254;-45
2024/02/17 07:47:20;;;;;;;0.88;0.68;;;10.80;99.90;;;;;;5106828;28;20032;-46
2024/02/17 07:49:46;;;;;;;0.60;0.60;;;10.80;99.90;;;;;;5106841;28;20020;-50
2024/02/17 07:52:12;;;;;;;0.77;0.50;;;10.80;99.90;;;;;;5106907;28;20276;-45
2024/02/17 07:54:37;;;;;;;0.50;0.50;;;10.90;99.90;;;;;;5106791;28;20031;-45
2024/02/17 07:57:03;;;;;;;0.77;0.60;;;10.90;99.90;;;;;;5106655;28;20291;-48
2024/02/17 07:59:29;;;;;;;0.55;0.50;;;10.90;99.90;;;;;;5106434;28;20039;-45
2024/02/17 08:01:54;;;;;;;0.68;0.60;;;10.90;99.90;;;;;;5106633;28;20024;-46
2024/02/17 08:04:20;;;;;;;0.57;0.50;;;10.90;99.90;;;;;;5106338;28;20090;-46
2024/02/17 08:06:46;;;;;;;0.88;0.50;;;10.90;99.90;;;;;;5105955;28;20036;-46
2024/02/17 08:09:11;;;;;;;1.17;0.50;;;10.90;99.90;;;;;;5106576;28;20039;-48
2024/02/17 08:11:37;;;;;;;0.52;0.50;;;11.00;99.90;;;;;;5106567;28;20028;-46
2024/02/17 08:14:05;;;;;;;0.70;0.60;;;10.90;99.90;;;;;;5106488;28;20034;-48
2024/02/17 08:16:31;;;;;;;0.50;0.50;;;10.90;99.90;;;;;;5105945;28;20197;-46
2024/02/17 08:18:57;;;;;;;0.50;0.50;;;11.00;99.90;;;;;;5106484;28;20023;-46
2024/02/17 08:21:24;;;;;;;0.50;0.50;;;11.00;99.90;;;;;;5106220;28;20137;-46
2024/02/17 08:23:51;;;;;;;1.17;0.65;;;11.00;99.90;;;;;;5106085;28;20047;-48
2024/02/17 08:26:17;;;;;;;1.20;0.60;;;11.10;99.90;;;;;;5106589;28;20050;-46
2024/02/17 08:28:43;;;;;;;1.15;0.77;;;11.10;99.90;;;;;;5105035;28;20358;-48
2024/02/17 08:31:08;;;;;;;1.33;0.63;;;11.10;99.90;;;;;;5106103;28;20023;-46
2024/02/17 08:33:34;;;;;;;1.63;0.80;;;11.20;99.90;;;;;;5106041;28;20035;-48
2024/02/17 08:36:00;;;;;;;0.98;0.80;;;11.20;99.90;;;;;;5105937;28;20184;-46
2024/02/17 08:38:26;;;;;;;1.60;0.80;;;11.10;99.90;;;;;;5106006;28;20166;-48
2024/02/17 08:40:51;;;;;;;1.38;0.90;;;11.20;99.90;;;;;;5105930;28;20028;-48
2024/02/17 08:43:17;;;;;;;2.40;0.98;;;11.20;99.90;;;;;;5105282;28;20040;-46
2024/02/17 08:45:43;;;;;;;0.77;0.60;;;11.20;99.90;;;;;;5105356;28;20087;-47
2024/02/17 08:48:08;;;;;;;0.60;0.60;;;11.20;99.90;;;;;;5105433;28;20377;-45
2024/02/17 08:50:34;;;;;;;4.45;1.00;;;11.20;99.90;;;;;;5105924;28;20055;-45
2024/02/17 08:53:00;;;;;;;2.00;0.70;;;11.20;99.90;;;;;;5105870;28;20043;-46
2024/02/17 08:55:25;;;;;;;2.95;0.93;;;11.20;99.90;;;;;;5104863;28;20023;-45
2024/02/17 08:57:51;;;;;;;2.75;0.80;;;11.20;99.90;;;;;;5105385;28;20215;-46
2024/02/17 09:00:22;;;;;;;2.20;0.90;;;11.20;99.90;;;;;;5105760;28;20107;-46
2024/02/17 09:02:48;;;;;;;5.45;1.75;;;11.20;99.90;;;;;;5105113;28;20024;-48
2024/02/17 09:05:13;;;;;;;4.72;2.20;;;11.20;99.90;;;;;;5105594;28;20189;-47
2024/02/17 09:07:39;;;;;;;5.97;2.35;;;11.20;99.90;;;;;;5105577;28;20024;-46
2024/02/17 09:10:06;;;;;;;6.32;1.98;;;11.20;99.90;;;;;;5105660;28;20085;-46
2024/02/17 09:12:31;;;;;;;4.18;1.20;;;11.10;99.90;;;;;;5105686;28;20153;-49
2024/02/17 09:14:57;;;;;;;5.93;1.83;;;11.10;99.90;;;;;;5105745;28;20105;-47
2024/02/17 09:17:24;;;;;;;10.15;3.35;;;11.10;99.90;;;;;;5105460;28;20028;-47
2024/02/17 09:19:49;;;;;;;7.32;2.90;;;11.10;99.90;;;;;;5105585;28;20181;-49
2024/02/17 09:22:16;;;;;;;4.82;1.70;;;11.10;99.90;;;;;;5105146;28;20040;-46
2024/02/17 09:24:42;;;;;;;7.55;2.85;;;11.20;99.90;;;;;;5105513;28;20028;-48
2024/02/17 09:27:09;;;;;;;2.53;1.30;;;11.10;99.90;;;;;;5105397;28;20047;-47
2024/02/17 09:29:34;;;;;;;10.55;3.55;;;11.20;99.90;;;;;;5105378;28;20228;-47
2024/02/17 09:32:00;;;;;;;9.43;4.22;;;11.20;99.90;;;;;;5105467;28;20027;-49
2024/02/17 09:34:26;;;;;;;9.10;3.55;;;11.20;99.90;;;;;;5109000;28;20081;-49
2024/02/17 09:36:52;;;;;;;6.47;2.00;;;11.30;99.90;;;;;;5109243;28;20047;-49
2024/02/17 09:39:17;;;;;;;10.32;3.78;;;11.40;99.90;;;;;;5108876;28;20281;-46
2024/02/17 09:41:43;;;;;;;5.38;2.42;;;11.40;99.90;;;;;;5109085;28;20218;-48
2024/02/17 09:44:09;;;;;;;5.40;2.63;;;11.40;99.90;;;;;;5108864;28;20027;-50
2024/02/17 09:46:35;;;;;;;7.60;3.03;;;11.40;99.90;;;;;;5109112;28;20048;-46
2024/02/17 09:49:01;;;;;;;5.45;2.10;;;11.40;99.90;;;;;;5108856;28;20046;-47
2024/02/17 09:51:26;;;;;;;4.68;1.73;;;11.40;99.90;;;;;;5090958;28;20083;-46
2024/02/17 09:53:53;;;;;;;3.55;1.98;;;11.50;99.90;;;;;;5108011;28;20028;-50
2024/02/17 09:56:19;;;;;;;5.88;2.00;;;11.50;99.90;;;;;;5107719;28;20032;-45
2024/02/17 09:58:45;;;;;;;6.18;2.25;;;11.70;99.90;;;;;;5107201;28;20035;-49
2024/02/17 10:01:11;;;;;;;3.05;1.45;;;11.80;99.90;;;;;;5108448;28;20109;-47
2024/02/17 10:03:38;;;;;;;4.95;2.20;;;11.80;99.90;;;;;;5108291;28;20050;-46
2024/02/17 10:06:14;;;;;;;3.13;1.85;;;11.80;99.90;;;;;;5108080;28;20288;-48
2024/02/17 10:08:40;;;;;;;5.57;2.40;;;11.90;99.90;;;;;;5108501;28;20184;-47
2024/02/17 10:11:10;;;;;;;4.95;2.15;;;11.90;99.90;;;;;;5108291;28;20019;-49
2024/02/17 10:13:37;;;;;;;3.42;2.05;;;11.90;99.90;;;;;;5108089;28;20027;-45
2024/02/17 10:16:07;;;;;;;4.05;1.90;;;11.90;99.90;;;;;;5108275;28;20028;-48
2024/02/17 10:18:33;;;;;;;3.95;2.08;;;11.80;99.90;;;;;;5107360;28;20028;-45
2024/02/17 10:20:58;;;;;;;3.75;1.98;;;11.80;99.90;;;;;;5108054;28;20028;-47
2024/02/17 10:23:25;;;;;;;2.85;1.88;;;11.90;99.90;;;;;;5107636;28;20081;-47
2024/02/17 10:25:50;;;;;;;4.78;1.70;;;11.80;99.90;;;;;;5108184;28;20028;-49
2024/02/17 10:28:16;;;;;;;3.47;1.65;;;11.80;99.90;;;;;;5108143;28;20288;-45
2024/02/17 10:30:42;;;;;;;4.57;1.73;;;11.80;99.90;;;;;;5108038;28;20087;-49
2024/02/17 10:33:10;;;;;;;3.50;1.67;;;11.80;99.90;;;;;;5107805;28;20180;-49
2024/02/17 10:35:37;;;;;;;4.95;1.45;;;11.80;99.90;;;;;;5108044;28;20104;-46
2024/02/17 10:38:05;;;;;;;1.52;1.25;;;11.80;99.90;;;;;;5107764;28;20050;-49
2024/02/17 10:40:31;;;;;;;3.60;1.40;;;11.90;99.90;;;;;;5090044;28;20077;-48
2024/02/17 10:42:56;;;;;;;3.35;1.20;;;11.90;99.90;;;;;;5106645;28;20087;-47
2024/02/17 10:45:22;;;;;;;1.98;1.40;;;11.90;99.90;;;;;;5107174;28;20028;-49
2024/02/17 10:47:48;;;;;;;2.92;1.17;;;12.00;99.90;;;;;;5107420;28;20069;-46
2024/02/17 10:50:15;;;;;;;2.70;1.17;;;12.00;99.90;;;;;;5107456;28;20035;-46
2024/02/17 10:52:50;;;;;;;3.78;1.88;;;12.00;99.90;;;;;;5107971;28;20102;-46
2024/02/17 10:55:15;;;;;;;1.70;0.93;;;12.10;99.90;;;;;;5107334;28;20027;-48
2024/02/17 10:57:47;;;;;;;2.63;1.40;;;12.00;99.90;;;;;;5089795;28;20161;-48
2024/02/17 11:00:13;;;;;;;5.22;4.75;;;12.00;99.90;;;;;;5106433;28;20077;-47
2024/02/17 11:02:39;;;;;;;3.17;1.30;;;12.00;99.90;;;;;;5089243;28;20244;-48
2024/02/17 11:05:07;;;;;;;2.05;1.40;;;12.00;99.90;;;;;;5106249;28;20055;-48
2024/02/17 11:07:33;;;;;;;5.28;3.50;;;12.00;99.90;;;;;;5105897;28;20066;-46
2024/02/17 11:10:03;;;;;;;5.32;2.95;;;12.10;99.90;;;;;;5106206;28;20219;-45
2024/02/17 11:12:29;;;;;;;3.50;1.70;;;12.10;99.90;;;;;;5107005;28;20032;-47
2024/02/17 11:15:11;;;;;;;3.03;2.08;;;12.10;99.90;;;;;;5106772;28;20050;-46
2024/02/17 11:17:50;;;;;;;4.07;1.85;;;12.00;99.90;;;;;;5107070;28;20046;-45
2024/02/17 11:20:17;;;;;;;1.85;1.13;;;12.00;99.90;;;;;;5106053;28;20048;-45
2024/02/17 11:22:52;;;;;;;3.92;2.05;;;12.00;99.90;;;;;;5106518;28;20101;-48
2024/02/17 11:25:35;;;;;;;4.72;2.35;;;12.00;99.90;;;;;;5106566;28;20027;-49
2024/02/17 11:28:01;;;;;;;5.72;2.40;;;12.10;99.90;;;;;;5105472;28;20193;-45
2024/02/17 11:30:27;;;;;;;2.42;1.45;;;12.10;99.90;;;;;;5105687;28;20270;-48
2024/02/17 11:33:00;;;;;;;2.65;1.67;;;12.10;99.90;;;;;;5106738;28;20028;-48
2024/02/17 11:35:26;;;;;;;4.63;2.33;;;12.10;99.90;;;;;;5106745;28;20039;-45
2024/02/17 11:37:53;;;;;;;4.75;2.13;;;12.10;99.90;;;;;;5106723;28;20019;-45
2024/02/17 11:40:20;;;;;;;6.13;2.25;;;12.30;99.90;;;;;;5106158;28;20063;-48
2024/02/17 11:42:45;;;;;;;6.88;4.53;;;12.20;99.90;;;;;;5105893;28;20024;-50
2024/02/17 11:45:11;;;;;;;7.00;3.60;;;12.40;99.90;;;;;;5105083;28;20091;-47
2024/02/17 11:47:37;;;;;;;7.10;5.05;;;12.40;99.90;;;;;;5106164;28;20024;-46
2024/02/17 11:50:09;;;;;;;6.50;3.60;;;12.40;99.90;;;;;;5106377;28;20036;-48
2024/02/17 11:52:35;;;;;;;3.90;2.25;;;12.50;99.90;;;;;;5105986;28;20039;-46
2024/02/17 11:55:00;;;;;;;2.55;1.63;;;12.50;99.90;;;;;;5104813;28;20035;-48
2024/02/17 11:57:30;;;;;;;7.53;3.75;;;12.50;99.90;;;;;;5105544;28;20058;-49
2024/02/17 11:59:55;;;;;;;4.78;2.47;;;12.50;99.90;;;;;;5106174;28;20313;-46
2024/02/17 12:02:22;;;;;;;4.07;2.00;;;12.40;99.90;;;;;;5105645;28;20036;-48
2024/02/17 12:04:47;;;;;;;5.93;2.20;;;12.40;99.90;;;;;;5104877;28;20028;-47
2024/02/17 12:07:13;;;;;;;6.25;2.92;;;12.30;99.90;;;;;;5105761;28;20114;-49
2024/02/17 12:09:38;;;;;;;16.23;10.00;;;12.40;99.90;;;;;;5106083;28;20286;-50
2024/02/17 12:12:05;;;;;;;36.83;24.25;;;12.40;99.90;;;;;;5105626;28;20038;-47
2024/02/17 12:14:30;;;;;;;9.18;5.68;;;12.30;99.90;;;;;;5088243;28;20077;-49
2024/02/17 12:16:56;;;;;;;38.40;23.02;;;12.30;99.90;;;;;;5104913;28;20293;-47
2024/02/17 12:19:25;;;;;;;5.68;3.33;;;12.20;99.90;;;;;;5105816;28;20027;-48
2024/02/17 12:21:50;;;;;;;8.93;4.10;;;12.20;99.90;;;;;;5105835;28;20077;-50
2024/02/17 12:24:17;;;;;;;11.15;7.20;;;12.10;99.90;;;;;;5105777;28;20090;-47
2024/02/17 12:26:42;;;;;;;10.75;4.55;;;12.10;99.90;;;;;;5104728;28;20035;-47
2024/02/17 12:29:08;;;;;;;12.85;7.63;;;12.10;99.90;;;;;;5105476;28;20024;-46
2024/02/17 12:31:35;;;;;;;5.43;1.55;;;12.10;99.90;;;;;;5105391;28;20086;-49
2024/02/17 12:34:00;;;;;;;5.78;2.90;;;12.10;99.90;;;;;;5105794;28;20031;-47
2024/02/17 12:36:26;;;;;;;5.95;3.25;;;12.10;99.90;;;;;;5105730;28;20028;-47
2024/02/17 12:38:58;;;;;;;4.90;3.15;;;12.10;99.90;;;;;;5105796;28;20032;-47
2024/02/17 12:41:25;;;;;;;5.97;2.33;;;12.20;99.90;;;;;;5105389;28;20096;-46
2024/02/17 12:43:54;;;;;;;4.97;2.08;;;12.10;99.90;;;;;;5105404;28;20028;-47